sensor_id;sensor_type;location;lat;lon;timestamp;P1;durP1;ratioP1;P2;durP2;ratioP2
76903;SDS011;65865;51.698;-0.292;2022-12-18T00:01:59;2.08;;;1.77;;
76903;SDS011;65865;51.698;-0.292;2022-12-18T00:04:25;3.10;;;2.08;;
76903;SDS011;65865;51.698;-0.292;2022-12-18T00:06:52;3.05;;;1.83;;
76903;SDS011;65865;51.698;-0.292;2022-12-18T00:09:18;2.30;;;1.75;;
76903;SDS011;65865;51.698;-0.292;2022-12-18T00:11:44;3.25;;;2.00;;
76903;SDS011;65865;51.698;-0.292;2022-12-18T00:14:11;2.67;;;1.90;;
76903;SDS011;65865;51.698;-0.292;2022-12-18T00:16:37;2.50;;;1.40;;
76903;SDS011;65865;51.698;-0.292;2022-12-18T00:19:04;2.40;;;1.88;;
76903;SDS011;65865;51.698;-0.292;2022-12-18T00:21:30;2.53;;;1.92;;
76903;SDS011;65865;51.698;-0.292;2022-12-18T00:23:57;3.00;;;1.85;;
76903;SDS011;65865;51.698;-0.292;2022-12-18T00:26:25;2.55;;;1.80;;
76903;SDS011;65865;51.698;-0.292;2022-12-18T00:28:52;2.72;;;2.20;;
76903;SDS011;65865;51.698;-0.292;2022-12-18T00:31:19;2.85;;;1.75;;
76903;SDS011;65865;51.698;-0.292;2022-12-18T00:33:46;2.78;;;1.77;;
76903;SDS011;65865;51.698;-0.292;2022-12-18T00:36:14;2.88;;;2.03;;
76903;SDS011;65865;51.698;-0.292;2022-12-18T00:38:40;3.60;;;2.10;;
76903;SDS011;65865;51.698;-0.292;2022-12-18T00:41:07;2.88;;;1.90;;
76903;SDS011;65865;51.698;-0.292;2022-12-18T00:43:33;2.85;;;1.70;;
76903;SDS011;65865;51.698;-0.292;2022-12-18T00:46:00;2.78;;;1.90;;
76903;SDS011;65865;51.698;-0.292;2022-12-18T00:48:26;2.22;;;1.73;;
76903;SDS011;65865;51.698;-0.292;2022-12-18T00:50:52;2.92;;;1.70;;
76903;SDS011;65865;51.698;-0.292;2022-12-18T00:53:19;2.30;;;1.55;;
76903;SDS011;65865;51.698;-0.292;2022-12-18T00:55:45;2.30;;;2.03;;
76903;SDS011;65865;51.698;-0.292;2022-12-18T00:58:11;2.95;;;2.05;;
76903;SDS011;65865;51.698;-0.292;2022-12-18T01:00:37;3.13;;;1.95;;
76903;SDS011;65865;51.698;-0.292;2022-12-18T01:03:04;3.63;;;1.67;;
76903;SDS011;65865;51.698;-0.292;2022-12-18T01:05:30;2.38;;;1.85;;
76903;SDS011;65865;51.698;-0.292;2022-12-18T01:07:56;2.30;;;1.88;;
76903;SDS011;65865;51.698;-0.292;2022-12-18T01:10:24;2.25;;;1.70;;
76903;SDS011;65865;51.698;-0.292;2022-12-18T01:12:50;2.17;;;1.70;;
76903;SDS011;65865;51.698;-0.292;2022-12-18T01:15:17;2.78;;;1.70;;
76903;SDS011;65865;51.698;-0.292;2022-12-18T01:17:43;2.58;;;1.73;;
76903;SDS011;65865;51.698;-0.292;2022-12-18T01:20:10;3.15;;;1.95;;
76903;SDS011;65865;51.698;-0.292;2022-12-18T01:22:36;2.88;;;1.95;;
76903;SDS011;65865;51.698;-0.292;2022-12-18T01:25:03;2.67;;;2.28;;
76903;SDS011;65865;51.698;-0.292;2022-12-18T01:27:30;2.58;;;1.85;;
76903;SDS011;65865;51.698;-0.292;2022-12-18T01:29:56;3.00;;;1.73;;
76903;SDS011;65865;51.698;-0.292;2022-12-18T01:32:22;2.10;;;1.90;;
76903;SDS011;65865;51.698;-0.292;2022-12-18T01:34:48;3.10;;;2.15;;
76903;SDS011;65865;51.698;-0.292;2022-12-18T01:37:15;2.40;;;1.67;;
76903;SDS011;65865;51.698;-0.292;2022-12-18T01:39:41;2.85;;;1.92;;
76903;SDS011;65865;51.698;-0.292;2022-12-18T01:42:15;2.45;;;1.90;;
76903;SDS011;65865;51.698;-0.292;2022-12-18T01:50:48;2.65;;;1.83;;
76903;SDS011;65865;51.698;-0.292;2022-12-18T01:52:50;2.22;;;1.80;;
76903;SDS011;65865;51.698;-0.292;2022-12-18T01:55:18;2.10;;;1.80;;
76903;SDS011;65865;51.698;-0.292;2022-12-18T01:57:44;3.47;;;2.00;;
76903;SDS011;65865;51.698;-0.292;2022-12-18T02:00:12;2.72;;;1.92;;
76903;SDS011;65865;51.698;-0.292;2022-12-18T02:02:39;2.80;;;1.60;;
76903;SDS011;65865;51.698;-0.292;2022-12-18T02:05:06;3.60;;;2.38;;
76903;SDS011;65865;51.698;-0.292;2022-12-18T02:07:46;2.97;;;1.77;;
76903;SDS011;65865;51.698;-0.292;2022-12-18T02:12:44;3.00;;;2.05;;
76903;SDS011;65865;51.698;-0.292;2022-12-18T02:15:13;2.35;;;1.90;;
76903;SDS011;65865;51.698;-0.292;2022-12-18T02:20:40;2.88;;;1.88;;
76903;SDS011;65865;51.698;-0.292;2022-12-18T02:23:12;3.45;;;2.30;;
76903;SDS011;65865;51.698;-0.292;2022-12-18T02:28:21;2.90;;;1.95;;
76903;SDS011;65865;51.698;-0.292;2022-12-18T02:30:49;2.35;;;1.95;;
76903;SDS011;65865;51.698;-0.292;2022-12-18T02:33:17;3.17;;;2.15;;
76903;SDS011;65865;51.698;-0.292;2022-12-18T02:35:44;2.10;;;1.90;;
76903;SDS011;65865;51.698;-0.292;2022-12-18T02:38:11;3.15;;;2.05;;
76903;SDS011;65865;51.698;-0.292;2022-12-18T02:40:37;2.42;;;1.77;;
76903;SDS011;65865;51.698;-0.292;2022-12-18T02:43:07;2.70;;;1.92;;
76903;SDS011;65865;51.698;-0.292;2022-12-18T02:48:00;2.38;;;1.65;;
76903;SDS011;65865;51.698;-0.292;2022-12-18T02:50:30;2.72;;;1.83;;
76903;SDS011;65865;51.698;-0.292;2022-12-18T02:56:07;3.00;;;1.88;;
76903;SDS011;65865;51.698;-0.292;2022-12-18T03:03:59;2.58;;;1.52;;
76903;SDS011;65865;51.698;-0.292;2022-12-18T03:06:28;2.63;;;1.92;;
76903;SDS011;65865;51.698;-0.292;2022-12-18T03:09:42;2.65;;;1.70;;
76903;SDS011;65865;51.698;-0.292;2022-12-18T03:11:42;2.55;;;1.65;;
76903;SDS011;65865;51.698;-0.292;2022-12-18T03:14:30;2.42;;;1.73;;
76903;SDS011;65865;51.698;-0.292;2022-12-18T03:17:03;2.75;;;1.98;;
76903;SDS011;65865;51.698;-0.292;2022-12-18T03:19:32;2.50;;;1.88;;
76903;SDS011;65865;51.698;-0.292;2022-12-18T03:22:00;2.28;;;1.67;;
76903;SDS011;65865;51.698;-0.292;2022-12-18T03:24:27;3.22;;;1.80;;
76903;SDS011;65865;51.698;-0.292;2022-12-18T03:26:57;1.92;;;1.70;;
76903;SDS011;65865;51.698;-0.292;2022-12-18T03:29:27;2.25;;;1.85;;
76903;SDS011;65865;51.698;-0.292;2022-12-18T03:32:02;2.88;;;1.92;;
76903;SDS011;65865;51.698;-0.292;2022-12-18T03:34:30;2.33;;;1.33;;
76903;SDS011;65865;51.698;-0.292;2022-12-18T03:36:58;2.60;;;1.90;;
76903;SDS011;65865;51.698;-0.292;2022-12-18T03:39:24;2.40;;;1.70;;
76903;SDS011;65865;51.698;-0.292;2022-12-18T03:46:54;2.47;;;1.65;;
76903;SDS011;65865;51.698;-0.292;2022-12-18T03:49:30;3.22;;;2.05;;
76903;SDS011;65865;51.698;-0.292;2022-12-18T03:54:24;3.78;;;2.17;;
76903;SDS011;65865;51.698;-0.292;2022-12-18T03:56:55;3.05;;;2.20;;
76903;SDS011;65865;51.698;-0.292;2022-12-18T03:59:22;2.75;;;2.00;;
76903;SDS011;65865;51.698;-0.292;2022-12-18T04:01:49;2.60;;;2.15;;
76903;SDS011;65865;51.698;-0.292;2022-12-18T04:04:16;3.50;;;2.40;;
76903;SDS011;65865;51.698;-0.292;2022-12-18T04:06:44;2.67;;;2.13;;
76903;SDS011;65865;51.698;-0.292;2022-12-18T04:09:11;3.20;;;2.08;;
76903;SDS011;65865;51.698;-0.292;2022-12-18T04:11:37;2.60;;;1.70;;
76903;SDS011;65865;51.698;-0.292;2022-12-18T04:14:03;2.88;;;1.90;;
76903;SDS011;65865;51.698;-0.292;2022-12-18T04:16:29;2.75;;;1.98;;
76903;SDS011;65865;51.698;-0.292;2022-12-18T04:18:55;3.92;;;2.60;;
76903;SDS011;65865;51.698;-0.292;2022-12-18T04:21:21;3.08;;;1.80;;
76903;SDS011;65865;51.698;-0.292;2022-12-18T04:23:47;3.33;;;2.20;;
76903;SDS011;65865;51.698;-0.292;2022-12-18T04:26:13;2.65;;;2.08;;
76903;SDS011;65865;51.698;-0.292;2022-12-18T04:28:40;3.05;;;2.47;;
76903;SDS011;65865;51.698;-0.292;2022-12-18T04:31:06;3.25;;;2.08;;
76903;SDS011;65865;51.698;-0.292;2022-12-18T04:33:32;3.25;;;2.17;;
76903;SDS011;65865;51.698;-0.292;2022-12-18T04:35:58;2.22;;;2.00;;
76903;SDS011;65865;51.698;-0.292;2022-12-18T04:38:24;3.03;;;2.10;;
76903;SDS011;65865;51.698;-0.292;2022-12-18T04:40:50;2.67;;;2.15;;
76903;SDS011;65865;51.698;-0.292;2022-12-18T04:43:16;3.08;;;2.03;;
76903;SDS011;65865;51.698;-0.292;2022-12-18T04:45:42;3.45;;;2.45;;
76903;SDS011;65865;51.698;-0.292;2022-12-18T04:48:08;2.67;;;2.25;;
76903;SDS011;65865;51.698;-0.292;2022-12-18T04:50:34;3.53;;;2.17;;
76903;SDS011;65865;51.698;-0.292;2022-12-18T04:53:00;3.00;;;1.98;;
76903;SDS011;65865;51.698;-0.292;2022-12-18T04:55:26;2.97;;;2.00;;
76903;SDS011;65865;51.698;-0.292;2022-12-18T04:57:52;2.92;;;2.20;;
76903;SDS011;65865;51.698;-0.292;2022-12-18T05:00:20;3.63;;;2.05;;
76903;SDS011;65865;51.698;-0.292;2022-12-18T05:02:46;3.92;;;2.33;;
76903;SDS011;65865;51.698;-0.292;2022-12-18T05:05:12;2.83;;;1.80;;
76903;SDS011;65865;51.698;-0.292;2022-12-18T05:07:38;4.30;;;2.60;;
76903;SDS011;65865;51.698;-0.292;2022-12-18T05:10:04;3.60;;;1.80;;
76903;SDS011;65865;51.698;-0.292;2022-12-18T05:12:32;2.85;;;2.33;;
76903;SDS011;65865;51.698;-0.292;2022-12-18T05:14:58;4.00;;;2.58;;
76903;SDS011;65865;51.698;-0.292;2022-12-18T05:17:24;3.20;;;2.30;;
76903;SDS011;65865;51.698;-0.292;2022-12-18T05:19:50;3.30;;;2.50;;
76903;SDS011;65865;51.698;-0.292;2022-12-18T05:22:16;2.65;;;2.05;;
76903;SDS011;65865;51.698;-0.292;2022-12-18T05:24:42;3.55;;;2.10;;
76903;SDS011;65865;51.698;-0.292;2022-12-18T05:27:08;3.90;;;2.05;;
76903;SDS011;65865;51.698;-0.292;2022-12-18T05:29:34;4.15;;;2.42;;
76903;SDS011;65865;51.698;-0.292;2022-12-18T05:32:00;4.22;;;2.55;;
76903;SDS011;65865;51.698;-0.292;2022-12-18T05:34:26;3.03;;;2.13;;
76903;SDS011;65865;51.698;-0.292;2022-12-18T05:36:52;5.22;;;2.40;;
76903;SDS011;65865;51.698;-0.292;2022-12-18T05:39:18;4.28;;;2.60;;
76903;SDS011;65865;51.698;-0.292;2022-12-18T05:41:44;4.15;;;2.50;;
76903;SDS011;65865;51.698;-0.292;2022-12-18T05:44:10;3.10;;;2.05;;
76903;SDS011;65865;51.698;-0.292;2022-12-18T05:46:36;4.15;;;2.42;;
76903;SDS011;65865;51.698;-0.292;2022-12-18T05:49:02;3.90;;;2.63;;
76903;SDS011;65865;51.698;-0.292;2022-12-18T05:51:28;4.47;;;2.70;;
76903;SDS011;65865;51.698;-0.292;2022-12-18T05:53:54;4.65;;;2.95;;
76903;SDS011;65865;51.698;-0.292;2022-12-18T05:56:20;4.28;;;2.72;;
76903;SDS011;65865;51.698;-0.292;2022-12-18T05:58:50;2.83;;;2.13;;
76903;SDS011;65865;51.698;-0.292;2022-12-18T06:01:17;3.70;;;2.70;;
76903;SDS011;65865;51.698;-0.292;2022-12-18T06:03:44;4.28;;;2.45;;
76903;SDS011;65865;51.698;-0.292;2022-12-18T06:06:19;3.67;;;2.45;;
76903;SDS011;65865;51.698;-0.292;2022-12-18T06:08:46;4.13;;;2.65;;
76903;SDS011;65865;51.698;-0.292;2022-12-18T06:11:12;3.42;;;2.40;;
76903;SDS011;65865;51.698;-0.292;2022-12-18T06:13:38;4.13;;;2.70;;
76903;SDS011;65865;51.698;-0.292;2022-12-18T06:16:05;4.43;;;2.75;;
76903;SDS011;65865;51.698;-0.292;2022-12-18T06:18:31;4.35;;;2.80;;
76903;SDS011;65865;51.698;-0.292;2022-12-18T06:20:58;3.95;;;2.38;;
76903;SDS011;65865;51.698;-0.292;2022-12-18T06:23:24;4.22;;;2.60;;
76903;SDS011;65865;51.698;-0.292;2022-12-18T06:25:50;4.30;;;2.80;;
76903;SDS011;65865;51.698;-0.292;2022-12-18T06:28:17;2.63;;;1.90;;
76903;SDS011;65865;51.698;-0.292;2022-12-18T06:30:43;3.63;;;2.25;;
76903;SDS011;65865;51.698;-0.292;2022-12-18T06:33:09;4.07;;;2.67;;
76903;SDS011;65865;51.698;-0.292;2022-12-18T06:35:36;3.17;;;2.13;;
76903;SDS011;65865;51.698;-0.292;2022-12-18T06:38:02;3.80;;;2.10;;
76903;SDS011;65865;51.698;-0.292;2022-12-18T06:40:29;5.45;;;2.55;;
76903;SDS011;65865;51.698;-0.292;2022-12-18T06:43:01;3.50;;;2.28;;
76903;SDS011;65865;51.698;-0.292;2022-12-18T06:45:27;4.00;;;2.17;;
76903;SDS011;65865;51.698;-0.292;2022-12-18T06:47:53;3.85;;;2.25;;
76903;SDS011;65865;51.698;-0.292;2022-12-18T06:50:19;4.32;;;2.83;;
76903;SDS011;65865;51.698;-0.292;2022-12-18T06:52:45;2.80;;;2.25;;
76903;SDS011;65865;51.698;-0.292;2022-12-18T06:55:11;4.18;;;2.40;;
76903;SDS011;65865;51.698;-0.292;2022-12-18T06:57:37;3.42;;;2.00;;
76903;SDS011;65865;51.698;-0.292;2022-12-18T07:00:05;3.97;;;2.55;;
76903;SDS011;65865;51.698;-0.292;2022-12-18T07:02:31;3.42;;;2.20;;
76903;SDS011;65865;51.698;-0.292;2022-12-18T07:04:57;3.75;;;2.60;;
76903;SDS011;65865;51.698;-0.292;2022-12-18T07:07:23;4.10;;;2.03;;
76903;SDS011;65865;51.698;-0.292;2022-12-18T07:09:50;3.50;;;2.10;;
76903;SDS011;65865;51.698;-0.292;2022-12-18T07:12:16;4.10;;;2.60;;
76903;SDS011;65865;51.698;-0.292;2022-12-18T07:14:42;3.20;;;2.15;;
76903;SDS011;65865;51.698;-0.292;2022-12-18T07:17:08;2.70;;;1.83;;
76903;SDS011;65865;51.698;-0.292;2022-12-18T07:19:34;2.50;;;2.20;;
76903;SDS011;65865;51.698;-0.292;2022-12-18T07:22:00;3.80;;;2.40;;
76903;SDS011;65865;51.698;-0.292;2022-12-18T07:24:26;3.25;;;2.22;;
76903;SDS011;65865;51.698;-0.292;2022-12-18T07:26:53;4.25;;;2.22;;
76903;SDS011;65865;51.698;-0.292;2022-12-18T07:29:19;3.42;;;1.55;;
76903;SDS011;65865;51.698;-0.292;2022-12-18T07:31:45;3.78;;;2.20;;
76903;SDS011;65865;51.698;-0.292;2022-12-18T07:34:11;3.03;;;1.85;;
76903;SDS011;65865;51.698;-0.292;2022-12-18T07:36:38;2.95;;;1.83;;
76903;SDS011;65865;51.698;-0.292;2022-12-18T07:39:04;3.45;;;2.10;;
76903;SDS011;65865;51.698;-0.292;2022-12-18T07:41:30;2.15;;;1.60;;
76903;SDS011;65865;51.698;-0.292;2022-12-18T07:43:56;3.47;;;1.83;;
76903;SDS011;65865;51.698;-0.292;2022-12-18T07:46:22;2.20;;;1.60;;
76903;SDS011;65865;51.698;-0.292;2022-12-18T07:48:49;2.42;;;1.60;;
76903;SDS011;65865;51.698;-0.292;2022-12-18T07:51:17;2.60;;;1.80;;
76903;SDS011;65865;51.698;-0.292;2022-12-18T07:53:43;2.05;;;1.50;;
76903;SDS011;65865;51.698;-0.292;2022-12-18T07:56:10;2.42;;;1.42;;
76903;SDS011;65865;51.698;-0.292;2022-12-18T07:58:36;2.00;;;1.60;;
76903;SDS011;65865;51.698;-0.292;2022-12-18T08:01:04;3.10;;;1.85;;
76903;SDS011;65865;51.698;-0.292;2022-12-18T08:03:33;2.30;;;1.30;;
76903;SDS011;65865;51.698;-0.292;2022-12-18T08:06:03;1.33;;;1.00;;
76903;SDS011;65865;51.698;-0.292;2022-12-18T08:08:30;2.92;;;1.63;;
76903;SDS011;65865;51.698;-0.292;2022-12-18T08:10:56;2.17;;;1.67;;
76903;SDS011;65865;51.698;-0.292;2022-12-18T08:13:23;1.63;;;1.38;;
76903;SDS011;65865;51.698;-0.292;2022-12-18T08:15:59;3.40;;;1.85;;
76903;SDS011;65865;51.698;-0.292;2022-12-18T08:18:26;2.67;;;1.63;;
76903;SDS011;65865;51.698;-0.292;2022-12-18T08:20:52;1.98;;;1.52;;
76903;SDS011;65865;51.698;-0.292;2022-12-18T08:23:18;2.50;;;1.75;;
76903;SDS011;65865;51.698;-0.292;2022-12-18T08:25:44;2.63;;;1.77;;
76903;SDS011;65865;51.698;-0.292;2022-12-18T08:28:10;3.65;;;2.03;;
76903;SDS011;65865;51.698;-0.292;2022-12-18T08:30:37;2.03;;;1.77;;
76903;SDS011;65865;51.698;-0.292;2022-12-18T08:33:03;6.35;;;2.00;;
76903;SDS011;65865;51.698;-0.292;2022-12-18T08:35:35;8.10;;;2.00;;
76903;SDS011;65865;51.698;-0.292;2022-12-18T08:38:02;2.38;;;1.45;;
76903;SDS011;65865;51.698;-0.292;2022-12-18T08:40:28;4.03;;;1.92;;
76903;SDS011;65865;51.698;-0.292;2022-12-18T08:42:55;5.18;;;2.05;;
76903;SDS011;65865;51.698;-0.292;2022-12-18T08:45:40;3.17;;;1.70;;
76903;SDS011;65865;51.698;-0.292;2022-12-18T08:48:06;2.35;;;1.42;;
76903;SDS011;65865;51.698;-0.292;2022-12-18T08:50:37;3.30;;;1.77;;
76903;SDS011;65865;51.698;-0.292;2022-12-18T08:53:04;1.70;;;1.15;;
76903;SDS011;65865;51.698;-0.292;2022-12-18T08:55:30;2.47;;;1.75;;
76903;SDS011;65865;51.698;-0.292;2022-12-18T08:57:56;3.55;;;1.98;;
76903;SDS011;65865;51.698;-0.292;2022-12-18T09:00:23;3.60;;;1.65;;
76903;SDS011;65865;51.698;-0.292;2022-12-18T09:02:51;2.35;;;1.70;;
76903;SDS011;65865;51.698;-0.292;2022-12-18T09:05:19;3.80;;;1.92;;
76903;SDS011;65865;51.698;-0.292;2022-12-18T09:07:45;3.03;;;2.00;;
76903;SDS011;65865;51.698;-0.292;2022-12-18T09:10:14;3.47;;;1.80;;
76903;SDS011;65865;51.698;-0.292;2022-12-18T09:12:40;3.47;;;1.80;;
76903;SDS011;65865;51.698;-0.292;2022-12-18T09:15:06;3.28;;;1.95;;
76903;SDS011;65865;51.698;-0.292;2022-12-18T09:17:32;3.75;;;1.98;;
76903;SDS011;65865;51.698;-0.292;2022-12-18T09:19:58;3.15;;;1.77;;
76903;SDS011;65865;51.698;-0.292;2022-12-18T09:22:24;3.70;;;2.05;;
76903;SDS011;65865;51.698;-0.292;2022-12-18T09:24:50;3.08;;;1.95;;
76903;SDS011;65865;51.698;-0.292;2022-12-18T09:27:17;3.33;;;2.03;;
76903;SDS011;65865;51.698;-0.292;2022-12-18T09:29:43;4.35;;;1.85;;
76903;SDS011;65865;51.698;-0.292;2022-12-18T09:32:09;3.50;;;2.25;;
76903;SDS011;65865;51.698;-0.292;2022-12-18T09:34:35;3.05;;;1.92;;
76903;SDS011;65865;51.698;-0.292;2022-12-18T09:37:01;2.70;;;1.85;;
76903;SDS011;65865;51.698;-0.292;2022-12-18T09:39:27;3.05;;;1.90;;
76903;SDS011;65865;51.698;-0.292;2022-12-18T09:41:54;3.58;;;2.30;;
76903;SDS011;65865;51.698;-0.292;2022-12-18T09:44:35;2.60;;;1.70;;
76903;SDS011;65865;51.698;-0.292;2022-12-18T09:49:30;2.75;;;1.90;;
76903;SDS011;65865;51.698;-0.292;2022-12-18T09:51:59;3.70;;;2.08;;
76903;SDS011;65865;51.698;-0.292;2022-12-18T09:54:30;3.65;;;1.92;;
76903;SDS011;65865;51.698;-0.292;2022-12-18T09:56:58;4.00;;;2.10;;
76903;SDS011;65865;51.698;-0.292;2022-12-18T09:59:26;4.28;;;1.85;;
76903;SDS011;65865;51.698;-0.292;2022-12-18T10:01:53;2.97;;;1.83;;
76903;SDS011;65865;51.698;-0.292;2022-12-18T10:04:19;3.60;;;2.20;;
76903;SDS011;65865;51.698;-0.292;2022-12-18T10:06:55;2.50;;;1.65;;
76903;SDS011;65865;51.698;-0.292;2022-12-18T10:09:36;3.20;;;2.00;;
76903;SDS011;65865;51.698;-0.292;2022-12-18T10:17:26;3.58;;;1.55;;
76903;SDS011;65865;51.698;-0.292;2022-12-18T10:27:51;4.60;;;2.15;;
76903;SDS011;65865;51.698;-0.292;2022-12-18T10:30:18;5.15;;;2.33;;
76903;SDS011;65865;51.698;-0.292;2022-12-18T10:32:45;6.22;;;2.42;;
76903;SDS011;65865;51.698;-0.292;2022-12-18T10:35:18;4.90;;;2.40;;
76903;SDS011;65865;51.698;-0.292;2022-12-18T10:40:27;4.55;;;2.60;;
76903;SDS011;65865;51.698;-0.292;2022-12-18T10:43:09;3.90;;;2.72;;
76903;SDS011;65865;51.698;-0.292;2022-12-18T10:45:36;6.22;;;2.00;;
76903;SDS011;65865;51.698;-0.292;2022-12-18T10:48:02;4.63;;;2.70;;
76903;SDS011;65865;51.698;-0.292;2022-12-18T10:50:30;4.55;;;2.70;;
76903;SDS011;65865;51.698;-0.292;2022-12-18T10:52:58;3.38;;;2.53;;
76903;SDS011;65865;51.698;-0.292;2022-12-18T10:55:25;5.03;;;2.90;;
76903;SDS011;65865;51.698;-0.292;2022-12-18T10:57:53;5.00;;;2.95;;
76903;SDS011;65865;51.698;-0.292;2022-12-18T11:00:23;4.50;;;2.45;;
76903;SDS011;65865;51.698;-0.292;2022-12-18T11:02:50;4.93;;;2.80;;
76903;SDS011;65865;51.698;-0.292;2022-12-18T11:07:54;3.75;;;2.40;;
76903;SDS011;65865;51.698;-0.292;2022-12-18T11:10:21;5.53;;;3.17;;
76903;SDS011;65865;51.698;-0.292;2022-12-18T11:12:48;3.53;;;2.38;;
76903;SDS011;65865;51.698;-0.292;2022-12-18T11:15:19;5.22;;;2.90;;
76903;SDS011;65865;51.698;-0.292;2022-12-18T11:17:47;4.70;;;2.65;;
76903;SDS011;65865;51.698;-0.292;2022-12-18T11:20:21;3.85;;;2.63;;
76903;SDS011;65865;51.698;-0.292;2022-12-18T11:23:02;5.78;;;2.70;;
76903;SDS011;65865;51.698;-0.292;2022-12-18T11:25:29;4.18;;;2.28;;
76903;SDS011;65865;51.698;-0.292;2022-12-18T11:28:00;4.82;;;2.72;;
76903;SDS011;65865;51.698;-0.292;2022-12-18T11:30:30;6.30;;;3.47;;
76903;SDS011;65865;51.698;-0.292;2022-12-18T11:35:34;3.30;;;2.55;;
76903;SDS011;65865;51.698;-0.292;2022-12-18T11:38:06;4.95;;;2.63;;
76903;SDS011;65865;51.698;-0.292;2022-12-18T11:40:36;4.43;;;2.70;;
76903;SDS011;65865;51.698;-0.292;2022-12-18T11:43:10;4.55;;;2.80;;
76903;SDS011;65865;51.698;-0.292;2022-12-18T11:45:40;4.57;;;2.70;;
76903;SDS011;65865;51.698;-0.292;2022-12-18T11:50:51;5.90;;;2.67;;
76903;SDS011;65865;51.698;-0.292;2022-12-18T11:53:18;5.35;;;2.60;;
76903;SDS011;65865;51.698;-0.292;2022-12-18T12:00:58;5.93;;;2.70;;
76903;SDS011;65865;51.698;-0.292;2022-12-18T12:06:25;5.07;;;2.63;;
76903;SDS011;65865;51.698;-0.292;2022-12-18T12:11:26;5.95;;;3.58;;
76903;SDS011;65865;51.698;-0.292;2022-12-18T12:16:44;5.45;;;2.55;;
76903;SDS011;65865;51.698;-0.292;2022-12-18T12:21:46;4.13;;;2.60;;
76903;SDS011;65865;51.698;-0.292;2022-12-18T12:26:50;5.50;;;3.05;;
76903;SDS011;65865;51.698;-0.292;2022-12-18T12:34:37;7.18;;;2.70;;
76903;SDS011;65865;51.698;-0.292;2022-12-18T12:39:31;4.68;;;3.00;;
76903;SDS011;65865;51.698;-0.292;2022-12-18T12:41:59;5.10;;;2.78;;
76903;SDS011;65865;51.698;-0.292;2022-12-18T12:44:46;3.90;;;2.50;;
76903;SDS011;65865;51.698;-0.292;2022-12-18T12:47:21;3.90;;;2.58;;
76903;SDS011;65865;51.698;-0.292;2022-12-18T12:49:49;3.97;;;2.78;;
76903;SDS011;65865;51.698;-0.292;2022-12-18T12:54:50;6.35;;;3.50;;
76903;SDS011;65865;51.698;-0.292;2022-12-18T12:57:21;6.22;;;3.38;;
76903;SDS011;65865;51.698;-0.292;2022-12-18T13:02:20;6.72;;;3.88;;
76903;SDS011;65865;51.698;-0.292;2022-12-18T13:07:26;6.55;;;4.40;;
76903;SDS011;65865;51.698;-0.292;2022-12-18T13:12:51;6.93;;;4.20;;
76903;SDS011;65865;51.698;-0.292;2022-12-18T13:15:23;5.85;;;3.67;;
76903;SDS011;65865;51.698;-0.292;2022-12-18T13:18:02;5.40;;;3.78;;
76903;SDS011;65865;51.698;-0.292;2022-12-18T13:20:32;6.45;;;3.42;;
76903;SDS011;65865;51.698;-0.292;2022-12-18T13:22:59;5.43;;;3.50;;
76903;SDS011;65865;51.698;-0.292;2022-12-18T13:25:32;6.93;;;3.35;;
76903;SDS011;65865;51.698;-0.292;2022-12-18T13:33:57;4.22;;;2.85;;
76903;SDS011;65865;51.698;-0.292;2022-12-18T13:35:53;5.00;;;3.15;;
76903;SDS011;65865;51.698;-0.292;2022-12-18T13:40:55;4.32;;;2.80;;
76903;SDS011;65865;51.698;-0.292;2022-12-18T13:46:41;4.97;;;2.25;;
76903;SDS011;65865;51.698;-0.292;2022-12-18T13:48:38;4.30;;;2.70;;
76903;SDS011;65865;51.698;-0.292;2022-12-18T13:51:08;3.92;;;2.30;;
76903;SDS011;65865;51.698;-0.292;2022-12-18T13:53:36;3.25;;;1.90;;
76903;SDS011;65865;51.698;-0.292;2022-12-18T13:56:04;4.95;;;2.15;;
76903;SDS011;65865;51.698;-0.292;2022-12-18T13:58:30;3.63;;;2.13;;
76903;SDS011;65865;51.698;-0.292;2022-12-18T14:00:56;2.47;;;1.92;;
76903;SDS011;65865;51.698;-0.292;2022-12-18T14:03:25;5.60;;;2.33;;
76903;SDS011;65865;51.698;-0.292;2022-12-18T14:06:12;2.45;;;2.22;;
76903;SDS011;65865;51.698;-0.292;2022-12-18T14:08:41;4.32;;;2.00;;
76903;SDS011;65865;51.698;-0.292;2022-12-18T14:11:07;2.65;;;2.10;;
76903;SDS011;65865;51.698;-0.292;2022-12-18T14:13:43;2.80;;;1.60;;
76903;SDS011;65865;51.698;-0.292;2022-12-18T14:16:11;2.92;;;1.95;;
76903;SDS011;65865;51.698;-0.292;2022-12-18T14:21:45;2.55;;;1.90;;
76903;SDS011;65865;51.698;-0.292;2022-12-18T14:24:15;4.15;;;1.98;;
76903;SDS011;65865;51.698;-0.292;2022-12-18T14:26:42;3.03;;;1.90;;
76903;SDS011;65865;51.698;-0.292;2022-12-18T14:29:22;5.68;;;2.10;;
76903;SDS011;65865;51.698;-0.292;2022-12-18T14:34:30;2.20;;;1.55;;
76903;SDS011;65865;51.698;-0.292;2022-12-18T14:36:56;5.10;;;1.80;;
76903;SDS011;65865;51.698;-0.292;2022-12-18T14:39:22;3.22;;;1.80;;
76903;SDS011;65865;51.698;-0.292;2022-12-18T14:41:50;3.40;;;2.00;;
76903;SDS011;65865;51.698;-0.292;2022-12-18T14:44:16;3.20;;;1.90;;
76903;SDS011;65865;51.698;-0.292;2022-12-18T14:46:43;3.35;;;2.20;;
76903;SDS011;65865;51.698;-0.292;2022-12-18T14:51:52;4.50;;;2.10;;
76903;SDS011;65865;51.698;-0.292;2022-12-18T14:54:18;10.20;;;2.63;;
76903;SDS011;65865;51.698;-0.292;2022-12-18T14:56:46;6.32;;;2.92;;
76903;SDS011;65865;51.698;-0.292;2022-12-18T14:59:13;4.70;;;2.90;;
76903;SDS011;65865;51.698;-0.292;2022-12-18T15:09:41;6.38;;;2.67;;
76903;SDS011;65865;51.698;-0.292;2022-12-18T15:15:46;7.40;;;3.42;;
76903;SDS011;65865;51.698;-0.292;2022-12-18T15:20:41;6.38;;;3.20;;
76903;SDS011;65865;51.698;-0.292;2022-12-18T15:23:15;4.65;;;2.80;;
76903;SDS011;65865;51.698;-0.292;2022-12-18T15:25:42;5.75;;;2.65;;
76903;SDS011;65865;51.698;-0.292;2022-12-18T15:28:18;8.57;;;2.72;;
76903;SDS011;65865;51.698;-0.292;2022-12-18T15:34:19;5.53;;;2.58;;
76903;SDS011;65865;51.698;-0.292;2022-12-18T15:36:21;6.60;;;2.65;;
76903;SDS011;65865;51.698;-0.292;2022-12-18T15:38:48;5.20;;;2.50;;
76903;SDS011;65865;51.698;-0.292;2022-12-18T15:41:15;7.00;;;2.40;;
76903;SDS011;65865;51.698;-0.292;2022-12-18T15:43:41;6.07;;;2.65;;
76903;SDS011;65865;51.698;-0.292;2022-12-18T15:46:15;6.80;;;2.50;;
76903;SDS011;65865;51.698;-0.292;2022-12-18T15:48:48;4.55;;;2.35;;
76903;SDS011;65865;51.698;-0.292;2022-12-18T15:51:16;4.65;;;2.10;;
76903;SDS011;65865;51.698;-0.292;2022-12-18T15:53:42;3.72;;;1.90;;
76903;SDS011;65865;51.698;-0.292;2022-12-18T15:56:10;2.90;;;1.55;;
76903;SDS011;65865;51.698;-0.292;2022-12-18T15:58:55;8.57;;;2.05;;
76903;SDS011;65865;51.698;-0.292;2022-12-18T16:01:22;4.47;;;1.95;;
76903;SDS011;65865;51.698;-0.292;2022-12-18T16:03:48;4.72;;;2.10;;
76903;SDS011;65865;51.698;-0.292;2022-12-18T16:06:14;5.82;;;1.88;;
76903;SDS011;65865;51.698;-0.292;2022-12-18T16:08:40;4.13;;;2.22;;
76903;SDS011;65865;51.698;-0.292;2022-12-18T16:11:10;2.72;;;1.63;;
76903;SDS011;65865;51.698;-0.292;2022-12-18T16:13:40;3.45;;;1.35;;
76903;SDS011;65865;51.698;-0.292;2022-12-18T16:16:07;4.93;;;1.73;;
76903;SDS011;65865;51.698;-0.292;2022-12-18T16:18:33;3.80;;;2.00;;
76903;SDS011;65865;51.698;-0.292;2022-12-18T16:21:00;2.95;;;2.00;;
76903;SDS011;65865;51.698;-0.292;2022-12-18T16:23:26;2.35;;;1.25;;
76903;SDS011;65865;51.698;-0.292;2022-12-18T16:25:52;3.20;;;1.58;;
76903;SDS011;65865;51.698;-0.292;2022-12-18T16:28:18;1.80;;;1.40;;
76903;SDS011;65865;51.698;-0.292;2022-12-18T16:30:44;3.45;;;1.60;;
76903;SDS011;65865;51.698;-0.292;2022-12-18T16:33:10;3.28;;;1.70;;
76903;SDS011;65865;51.698;-0.292;2022-12-18T16:35:36;2.70;;;1.50;;
76903;SDS011;65865;51.698;-0.292;2022-12-18T16:38:02;2.30;;;1.35;;
76903;SDS011;65865;51.698;-0.292;2022-12-18T16:40:28;2.47;;;1.45;;
76903;SDS011;65865;51.698;-0.292;2022-12-18T16:42:57;7.20;;;1.13;;
76903;SDS011;65865;51.698;-0.292;2022-12-18T16:45:26;2.70;;;1.23;;
76903;SDS011;65865;51.698;-0.292;2022-12-18T16:47:57;4.20;;;1.00;;
76903;SDS011;65865;51.698;-0.292;2022-12-18T16:50:23;2.45;;;1.20;;